sensor_id;sensor_type;location;lat;lon;timestamp;P1;durP1;ratioP1;P2;durP2;ratioP2
26038;SDS011;13815;52.374;4.882;2023-05-07T00:01:28;0.00;;;0.00;;
26038;SDS011;13815;52.374;4.882;2023-05-07T00:03:53;0.00;;;0.00;;
26038;SDS011;13815;52.374;4.882;2023-05-07T00:06:18;0.00;;;0.00;;
26038;SDS011;13815;52.374;4.882;2023-05-07T00:08:44;0.00;;;0.00;;
26038;SDS011;13815;52.374;4.882;2023-05-07T00:11:09;0.00;;;0.00;;
26038;SDS011;13815;52.374;4.882;2023-05-07T00:13:35;0.00;;;0.00;;
26038;SDS011;13815;52.374;4.882;2023-05-07T00:16:03;0.00;;;0.00;;
26038;SDS011;13815;52.374;4.882;2023-05-07T00:18:32;0.00;;;0.00;;
26038;SDS011;13815;52.374;4.882;2023-05-07T00:20:57;0.00;;;0.00;;
26038;SDS011;13815;52.374;4.882;2023-05-07T00:23:22;0.00;;;0.00;;
26038;SDS011;13815;52.374;4.882;2023-05-07T00:25:48;0.00;;;0.00;;
26038;SDS011;13815;52.374;4.882;2023-05-07T00:28:13;0.00;;;0.00;;
26038;SDS011;13815;52.374;4.882;2023-05-07T00:30:39;0.00;;;0.00;;
26038;SDS011;13815;52.374;4.882;2023-05-07T00:33:04;0.00;;;0.00;;
26038;SDS011;13815;52.374;4.882;2023-05-07T00:35:30;0.00;;;0.00;;
26038;SDS011;13815;52.374;4.882;2023-05-07T00:37:55;0.00;;;0.00;;
26038;SDS011;13815;52.374;4.882;2023-05-07T00:40:22;0.00;;;0.00;;
26038;SDS011;13815;52.374;4.882;2023-05-07T00:42:47;0.00;;;0.00;;
26038;SDS011;13815;52.374;4.882;2023-05-07T00:45:14;0.00;;;0.00;;
26038;SDS011;13815;52.374;4.882;2023-05-07T00:47:40;0.00;;;0.00;;
26038;SDS011;13815;52.374;4.882;2023-05-07T00:50:06;0.00;;;0.00;;
26038;SDS011;13815;52.374;4.882;2023-05-07T00:52:32;0.00;;;0.00;;
26038;SDS011;13815;52.374;4.882;2023-05-07T00:55:00;0.00;;;0.00;;
26038;SDS011;13815;52.374;4.882;2023-05-07T00:57:29;0.00;;;0.00;;
26038;SDS011;13815;52.374;4.882;2023-05-07T00:59:58;0.00;;;0.00;;
26038;SDS011;13815;52.374;4.882;2023-05-07T01:02:23;0.00;;;0.00;;
26038;SDS011;13815;52.374;4.882;2023-05-07T01:04:49;0.00;;;0.00;;
26038;SDS011;13815;52.374;4.882;2023-05-07T01:07:14;0.00;;;0.00;;
26038;SDS011;13815;52.374;4.882;2023-05-07T01:09:40;0.00;;;0.00;;
26038;SDS011;13815;52.374;4.882;2023-05-07T01:12:05;0.00;;;0.00;;
26038;SDS011;13815;52.374;4.882;2023-05-07T01:14:31;0.00;;;0.00;;
26038;SDS011;13815;52.374;4.882;2023-05-07T01:16:58;0.00;;;0.00;;
26038;SDS011;13815;52.374;4.882;2023-05-07T01:19:23;0.00;;;0.00;;
26038;SDS011;13815;52.374;4.882;2023-05-07T01:21:49;0.00;;;0.00;;
26038;SDS011;13815;52.374;4.882;2023-05-07T01:24:16;0.00;;;0.00;;
26038;SDS011;13815;52.374;4.882;2023-05-07T01:26:42;0.00;;;0.00;;
26038;SDS011;13815;52.374;4.882;2023-05-07T01:29:08;0.00;;;0.00;;
26038;SDS011;13815;52.374;4.882;2023-05-07T01:31:33;0.00;;;0.00;;
26038;SDS011;13815;52.374;4.882;2023-05-07T01:33:59;0.00;;;0.00;;
26038;SDS011;13815;52.374;4.882;2023-05-07T01:36:26;0.00;;;0.00;;
26038;SDS011;13815;52.374;4.882;2023-05-07T01:38:52;0.00;;;0.00;;
26038;SDS011;13815;52.374;4.882;2023-05-07T01:41:18;0.00;;;0.00;;
26038;SDS011;13815;52.374;4.882;2023-05-07T01:43:44;0.00;;;0.00;;
26038;SDS011;13815;52.374;4.882;2023-05-07T01:46:10;0.00;;;0.00;;
26038;SDS011;13815;52.374;4.882;2023-05-07T01:48:37;0.00;;;0.00;;
26038;SDS011;13815;52.374;4.882;2023-05-07T01:51:02;0.00;;;0.00;;
26038;SDS011;13815;52.374;4.882;2023-05-07T01:53:28;0.00;;;0.00;;
26038;SDS011;13815;52.374;4.882;2023-05-07T01:55:53;0.00;;;0.00;;
26038;SDS011;13815;52.374;4.882;2023-05-07T01:58:19;0.00;;;0.00;;
26038;SDS011;13815;52.374;4.882;2023-05-07T02:00:44;0.00;;;0.00;;
26038;SDS011;13815;52.374;4.882;2023-05-07T02:03:10;0.00;;;0.00;;
26038;SDS011;13815;52.374;4.882;2023-05-07T02:05:35;0.00;;;0.00;;
26038;SDS011;13815;52.374;4.882;2023-05-07T02:08:00;0.00;;;0.00;;
26038;SDS011;13815;52.374;4.882;2023-05-07T02:10:26;0.00;;;0.00;;
26038;SDS011;13815;52.374;4.882;2023-05-07T02:12:51;0.00;;;0.00;;
26038;SDS011;13815;52.374;4.882;2023-05-07T02:15:16;0.00;;;0.00;;
26038;SDS011;13815;52.374;4.882;2023-05-07T02:20:27;0.00;;;0.00;;
26038;SDS011;13815;52.374;4.882;2023-05-07T02:22:53;0.00;;;0.00;;
26038;SDS011;13815;52.374;4.882;2023-05-07T02:25:18;0.00;;;0.00;;
26038;SDS011;13815;52.374;4.882;2023-05-07T02:27:43;0.00;;;0.00;;
26038;SDS011;13815;52.374;4.882;2023-05-07T02:30:10;0.00;;;0.00;;
26038;SDS011;13815;52.374;4.882;2023-05-07T02:32:35;0.00;;;0.00;;
26038;SDS011;13815;52.374;4.882;2023-05-07T02:35:07;0.00;;;0.00;;
26038;SDS011;13815;52.374;4.882;2023-05-07T02:37:32;0.00;;;0.00;;
26038;SDS011;13815;52.374;4.882;2023-05-07T02:39:58;0.00;;;0.00;;
26038;SDS011;13815;52.374;4.882;2023-05-07T02:42:25;0.00;;;0.00;;
26038;SDS011;13815;52.374;4.882;2023-05-07T02:44:50;0.00;;;0.00;;
26038;SDS011;13815;52.374;4.882;2023-05-07T02:47:15;0.00;;;0.00;;
26038;SDS011;13815;52.374;4.882;2023-05-07T02:49:41;0.00;;;0.00;;
26038;SDS011;13815;52.374;4.882;2023-05-07T02:52:06;0.00;;;0.00;;
26038;SDS011;13815;52.374;4.882;2023-05-07T02:54:32;0.00;;;0.00;;
26038;SDS011;13815;52.374;4.882;2023-05-07T02:56:57;0.00;;;0.00;;
26038;SDS011;13815;52.374;4.882;2023-05-07T02:59:23;0.00;;;0.00;;
26038;SDS011;13815;52.374;4.882;2023-05-07T03:01:48;0.00;;;0.00;;
26038;SDS011;13815;52.374;4.882;2023-05-07T03:04:14;0.00;;;0.00;;
26038;SDS011;13815;52.374;4.882;2023-05-07T03:06:39;0.10;;;0.10;;
26038;SDS011;13815;52.374;4.882;2023-05-07T03:09:05;0.00;;;0.00;;
26038;SDS011;13815;52.374;4.882;2023-05-07T03:11:30;0.10;;;0.10;;
26038;SDS011;13815;52.374;4.882;2023-05-07T03:13:55;0.00;;;0.00;;
26038;SDS011;13815;52.374;4.882;2023-05-07T03:16:21;0.10;;;0.10;;
26038;SDS011;13815;52.374;4.882;2023-05-07T03:18:46;0.10;;;0.10;;
26038;SDS011;13815;52.374;4.882;2023-05-07T03:21:11;0.00;;;0.00;;
26038;SDS011;13815;52.374;4.882;2023-05-07T03:23:37;0.10;;;0.10;;
26038;SDS011;13815;52.374;4.882;2023-05-07T03:26:02;0.10;;;0.10;;
26038;SDS011;13815;52.374;4.882;2023-05-07T03:28:28;0.10;;;0.10;;
26038;SDS011;13815;52.374;4.882;2023-05-07T03:30:53;0.00;;;0.00;;
26038;SDS011;13815;52.374;4.882;2023-05-07T03:33:18;0.00;;;0.00;;
26038;SDS011;13815;52.374;4.882;2023-05-07T03:35:44;0.00;;;0.00;;
26038;SDS011;13815;52.374;4.882;2023-05-07T03:38:09;0.00;;;0.00;;
26038;SDS011;13815;52.374;4.882;2023-05-07T03:40:35;0.10;;;0.10;;
26038;SDS011;13815;52.374;4.882;2023-05-07T03:43:00;0.05;;;0.05;;
26038;SDS011;13815;52.374;4.882;2023-05-07T03:45:26;0.10;;;0.10;;
26038;SDS011;13815;52.374;4.882;2023-05-07T03:47:51;0.00;;;0.00;;
26038;SDS011;13815;52.374;4.882;2023-05-07T03:50:17;0.00;;;0.00;;
26038;SDS011;13815;52.374;4.882;2023-05-07T03:52:42;0.10;;;0.10;;
26038;SDS011;13815;52.374;4.882;2023-05-07T03:55:08;0.10;;;0.10;;
26038;SDS011;13815;52.374;4.882;2023-05-07T03:57:42;0.10;;;0.10;;
26038;SDS011;13815;52.374;4.882;2023-05-07T04:00:08;0.10;;;0.10;;
26038;SDS011;13815;52.374;4.882;2023-05-07T04:02:34;0.10;;;0.10;;
26038;SDS011;13815;52.374;4.882;2023-05-07T04:05:00;0.10;;;0.10;;
26038;SDS011;13815;52.374;4.882;2023-05-07T04:07:26;0.10;;;0.10;;
26038;SDS011;13815;52.374;4.882;2023-05-07T04:09:52;0.10;;;0.10;;
26038;SDS011;13815;52.374;4.882;2023-05-07T04:12:17;0.10;;;0.10;;
26038;SDS011;13815;52.374;4.882;2023-05-07T04:14:42;0.10;;;0.10;;
26038;SDS011;13815;52.374;4.882;2023-05-07T04:17:08;0.10;;;0.10;;
26038;SDS011;13815;52.374;4.882;2023-05-07T04:19:34;0.10;;;0.10;;
26038;SDS011;13815;52.374;4.882;2023-05-07T04:22:00;0.10;;;0.10;;
26038;SDS011;13815;52.374;4.882;2023-05-07T04:24:25;0.10;;;0.10;;
26038;SDS011;13815;52.374;4.882;2023-05-07T04:26:54;0.10;;;0.10;;
26038;SDS011;13815;52.374;4.882;2023-05-07T04:29:20;0.10;;;0.10;;
26038;SDS011;13815;52.374;4.882;2023-05-07T04:31:46;0.10;;;0.10;;
26038;SDS011;13815;52.374;4.882;2023-05-07T04:34:11;0.10;;;0.10;;
26038;SDS011;13815;52.374;4.882;2023-05-07T04:36:37;0.10;;;0.10;;
26038;SDS011;13815;52.374;4.882;2023-05-07T04:39:04;0.10;;;0.10;;
26038;SDS011;13815;52.374;4.882;2023-05-07T04:41:30;0.10;;;0.10;;
26038;SDS011;13815;52.374;4.882;2023-05-07T04:43:55;0.10;;;0.10;;
26038;SDS011;13815;52.374;4.882;2023-05-07T04:46:21;0.10;;;0.10;;
26038;SDS011;13815;52.374;4.882;2023-05-07T04:48:47;0.00;;;0.00;;
26038;SDS011;13815;52.374;4.882;2023-05-07T04:51:12;0.08;;;0.08;;
26038;SDS011;13815;52.374;4.882;2023-05-07T04:53:38;0.10;;;0.10;;
26038;SDS011;13815;52.374;4.882;2023-05-07T04:56:03;0.00;;;0.00;;
26038;SDS011;13815;52.374;4.882;2023-05-07T04:58:29;0.10;;;0.10;;
26038;SDS011;13815;52.374;4.882;2023-05-07T05:00:56;0.10;;;0.10;;
26038;SDS011;13815;52.374;4.882;2023-05-07T05:03:22;0.00;;;0.00;;
26038;SDS011;13815;52.374;4.882;2023-05-07T05:05:51;0.00;;;0.00;;
26038;SDS011;13815;52.374;4.882;2023-05-07T05:08:17;0.03;;;0.03;;
26038;SDS011;13815;52.374;4.882;2023-05-07T05:10:42;0.10;;;0.10;;
26038;SDS011;13815;52.374;4.882;2023-05-07T05:13:08;0.00;;;0.00;;
26038;SDS011;13815;52.374;4.882;2023-05-07T05:15:34;0.00;;;0.00;;
26038;SDS011;13815;52.374;4.882;2023-05-07T05:17:59;0.10;;;0.10;;
26038;SDS011;13815;52.374;4.882;2023-05-07T05:20:25;0.03;;;0.03;;
26038;SDS011;13815;52.374;4.882;2023-05-07T05:22:51;0.00;;;0.00;;
26038;SDS011;13815;52.374;4.882;2023-05-07T05:25:16;0.00;;;0.00;;
26038;SDS011;13815;52.374;4.882;2023-05-07T05:27:42;0.00;;;0.00;;
26038;SDS011;13815;52.374;4.882;2023-05-07T05:30:07;0.00;;;0.00;;
26038;SDS011;13815;52.374;4.882;2023-05-07T05:32:33;0.00;;;0.00;;
26038;SDS011;13815;52.374;4.882;2023-05-07T05:34:59;0.00;;;0.00;;
26038;SDS011;13815;52.374;4.882;2023-05-07T05:37:25;0.00;;;0.00;;
26038;SDS011;13815;52.374;4.882;2023-05-07T05:39:50;0.00;;;0.00;;
26038;SDS011;13815;52.374;4.882;2023-05-07T05:42:16;0.00;;;0.00;;
26038;SDS011;13815;52.374;4.882;2023-05-07T05:44:41;0.00;;;0.00;;
26038;SDS011;13815;52.374;4.882;2023-05-07T05:47:06;0.00;;;0.00;;
26038;SDS011;13815;52.374;4.882;2023-05-07T05:49:32;0.00;;;0.00;;
26038;SDS011;13815;52.374;4.882;2023-05-07T05:51:57;0.00;;;0.00;;
26038;SDS011;13815;52.374;4.882;2023-05-07T05:54:23;0.00;;;0.00;;
26038;SDS011;13815;52.374;4.882;2023-05-07T05:56:50;0.00;;;0.00;;
26038;SDS011;13815;52.374;4.882;2023-05-07T05:59:15;0.00;;;0.00;;
26038;SDS011;13815;52.374;4.882;2023-05-07T06:01:41;0.00;;;0.00;;
26038;SDS011;13815;52.374;4.882;2023-05-07T06:04:06;0.00;;;0.00;;
26038;SDS011;13815;52.374;4.882;2023-05-07T06:06:31;0.00;;;0.00;;
26038;SDS011;13815;52.374;4.882;2023-05-07T06:08:57;0.00;;;0.00;;
26038;SDS011;13815;52.374;4.882;2023-05-07T06:11:22;0.00;;;0.00;;
26038;SDS011;13815;52.374;4.882;2023-05-07T06:13:48;0.00;;;0.00;;
26038;SDS011;13815;52.374;4.882;2023-05-07T06:16:13;0.00;;;0.00;;
26038;SDS011;13815;52.374;4.882;2023-05-07T06:18:40;0.00;;;0.00;;
26038;SDS011;13815;52.374;4.882;2023-05-07T06:21:06;0.00;;;0.00;;
26038;SDS011;13815;52.374;4.882;2023-05-07T06:23:31;0.00;;;0.00;;
26038;SDS011;13815;52.374;4.882;2023-05-07T06:25:57;0.00;;;0.00;;
26038;SDS011;13815;52.374;4.882;2023-05-07T06:28:22;0.03;;;0.03;;
26038;SDS011;13815;52.374;4.882;2023-05-07T06:30:47;0.00;;;0.00;;
26038;SDS011;13815;52.374;4.882;2023-05-07T06:33:14;0.00;;;0.00;;
26038;SDS011;13815;52.374;4.882;2023-05-07T06:35:40;0.10;;;0.10;;
26038;SDS011;13815;52.374;4.882;2023-05-07T06:38:05;0.00;;;0.00;;
26038;SDS011;13815;52.374;4.882;2023-05-07T06:40:31;0.00;;;0.00;;
26038;SDS011;13815;52.374;4.882;2023-05-07T06:42:56;0.00;;;0.00;;
26038;SDS011;13815;52.374;4.882;2023-05-07T06:45:21;0.00;;;0.00;;
26038;SDS011;13815;52.374;4.882;2023-05-07T06:47:47;0.00;;;0.00;;
26038;SDS011;13815;52.374;4.882;2023-05-07T06:50:12;0.00;;;0.00;;
26038;SDS011;13815;52.374;4.882;2023-05-07T06:52:37;0.00;;;0.00;;
26038;SDS011;13815;52.374;4.882;2023-05-07T06:55:03;0.00;;;0.00;;
26038;SDS011;13815;52.374;4.882;2023-05-07T06:57:29;0.00;;;0.00;;
26038;SDS011;13815;52.374;4.882;2023-05-07T06:59:55;0.00;;;0.00;;
26038;SDS011;13815;52.374;4.882;2023-05-07T07:02:22;0.00;;;0.00;;
26038;SDS011;13815;52.374;4.882;2023-05-07T07:04:47;0.00;;;0.00;;
26038;SDS011;13815;52.374;4.882;2023-05-07T07:07:13;0.00;;;0.00;;
26038;SDS011;13815;52.374;4.882;2023-05-07T07:09:38;0.00;;;0.00;;
26038;SDS011;13815;52.374;4.882;2023-05-07T07:12:03;0.00;;;0.00;;
26038;SDS011;13815;52.374;4.882;2023-05-07T07:14:31;0.00;;;0.00;;
26038;SDS011;13815;52.374;4.882;2023-05-07T07:16:56;0.00;;;0.00;;
26038;SDS011;13815;52.374;4.882;2023-05-07T07:19:25;0.00;;;0.00;;
26038;SDS011;13815;52.374;4.882;2023-05-07T07:21:51;0.00;;;0.00;;
26038;SDS011;13815;52.374;4.882;2023-05-07T07:24:16;0.08;;;0.08;;
26038;SDS011;13815;52.374;4.882;2023-05-07T07:26:45;0.00;;;0.00;;
26038;SDS011;13815;52.374;4.882;2023-05-07T07:29:11;0.00;;;0.00;;
26038;SDS011;13815;52.374;4.882;2023-05-07T07:31:36;0.00;;;0.00;;
26038;SDS011;13815;52.374;4.882;2023-05-07T07:34:02;0.00;;;0.00;;
26038;SDS011;13815;52.374;4.882;2023-05-07T07:36:27;0.10;;;0.10;;
26038;SDS011;13815;52.374;4.882;2023-05-07T07:38:53;0.10;;;0.10;;
26038;SDS011;13815;52.374;4.882;2023-05-07T07:41:18;0.10;;;0.10;;
26038;SDS011;13815;52.374;4.882;2023-05-07T07:43:44;0.10;;;0.10;;
26038;SDS011;13815;52.374;4.882;2023-05-07T07:46:11;0.10;;;0.10;;
26038;SDS011;13815;52.374;4.882;2023-05-07T07:48:36;0.10;;;0.10;;
26038;SDS011;13815;52.374;4.882;2023-05-07T07:51:02;0.10;;;0.10;;
26038;SDS011;13815;52.374;4.882;2023-05-07T07:53:27;0.10;;;0.10;;
26038;SDS011;13815;52.374;4.882;2023-05-07T07:55:52;0.10;;;0.10;;
26038;SDS011;13815;52.374;4.882;2023-05-07T07:58:18;0.10;;;0.10;;
26038;SDS011;13815;52.374;4.882;2023-05-07T08:00:43;0.10;;;0.10;;
26038;SDS011;13815;52.374;4.882;2023-05-07T08:03:09;0.10;;;0.10;;
26038;SDS011;13815;52.374;4.882;2023-05-07T08:05:35;0.10;;;0.10;;
26038;SDS011;13815;52.374;4.882;2023-05-07T08:08:01;0.10;;;0.10;;
26038;SDS011;13815;52.374;4.882;2023-05-07T08:10:26;0.10;;;0.10;;
26038;SDS011;13815;52.374;4.882;2023-05-07T08:12:52;0.10;;;0.10;;
26038;SDS011;13815;52.374;4.882;2023-05-07T08:15:17;0.10;;;0.10;;
26038;SDS011;13815;52.374;4.882;2023-05-07T08:17:43;0.10;;;0.10;;
26038;SDS011;13815;52.374;4.882;2023-05-07T08:20:08;0.10;;;0.10;;
26038;SDS011;13815;52.374;4.882;2023-05-07T08:22:34;0.10;;;0.10;;
26038;SDS011;13815;52.374;4.882;2023-05-07T08:25:00;0.20;;;0.20;;
26038;SDS011;13815;52.374;4.882;2023-05-07T08:27:26;0.20;;;0.20;;
26038;SDS011;13815;52.374;4.882;2023-05-07T08:29:51;0.20;;;0.20;;
26038;SDS011;13815;52.374;4.882;2023-05-07T08:32:17;0.30;;;0.30;;
26038;SDS011;13815;52.374;4.882;2023-05-07T08:34:42;0.28;;;0.28;;
26038;SDS011;13815;52.374;4.882;2023-05-07T08:37:07;0.32;;;0.32;;
26038;SDS011;13815;52.374;4.882;2023-05-07T08:39:32;0.40;;;0.40;;
26038;SDS011;13815;52.374;4.882;2023-05-07T08:41:58;0.40;;;0.40;;
26038;SDS011;13815;52.374;4.882;2023-05-07T08:44:26;0.40;;;0.40;;
26038;SDS011;13815;52.374;4.882;2023-05-07T08:46:54;0.50;;;0.50;;
26038;SDS011;13815;52.374;4.882;2023-05-07T08:49:21;0.50;;;0.50;;
26038;SDS011;13815;52.374;4.882;2023-05-07T08:51:46;0.60;;;0.60;;
26038;SDS011;13815;52.374;4.882;2023-05-07T08:54:12;0.80;;;0.80;;
26038;SDS011;13815;52.374;4.882;2023-05-07T08:56:41;1.10;;;1.10;;
26038;SDS011;13815;52.374;4.882;2023-05-07T08:59:06;1.50;;;1.50;;
26038;SDS011;13815;52.374;4.882;2023-05-07T09:01:32;1.90;;;1.90;;
26038;SDS011;13815;52.374;4.882;2023-05-07T09:03:57;2.03;;;2.03;;
26038;SDS011;13815;52.374;4.882;2023-05-07T09:06:23;2.20;;;2.20;;
26038;SDS011;13815;52.374;4.882;2023-05-07T09:08:49;2.10;;;2.10;;
26038;SDS011;13815;52.374;4.882;2023-05-07T09:11:16;1.90;;;1.90;;
26038;SDS011;13815;52.374;4.882;2023-05-07T09:13:46;1.90;;;1.90;;
26038;SDS011;13815;52.374;4.882;2023-05-07T09:16:11;2.10;;;2.10;;
26038;SDS011;13815;52.374;4.882;2023-05-07T09:18:41;2.40;;;2.40;;
26038;SDS011;13815;52.374;4.882;2023-05-07T09:21:09;2.40;;;2.40;;
26038;SDS011;13815;52.374;4.882;2023-05-07T09:23:35;2.80;;;2.80;;
26038;SDS011;13815;52.374;4.882;2023-05-07T09:26:00;3.50;;;3.40;;
26038;SDS011;13815;52.374;4.882;2023-05-07T09:28:26;4.40;;;4.30;;
26038;SDS011;13815;52.374;4.882;2023-05-07T09:30:52;4.93;;;4.82;;
26038;SDS011;13815;52.374;4.882;2023-05-07T09:33:17;6.70;;;6.50;;
26038;SDS011;13815;52.374;4.882;2023-05-07T09:35:42;9.70;;;9.40;;
26038;SDS011;13815;52.374;4.882;2023-05-07T09:38:11;11.85;;;11.45;;
26038;SDS011;13815;52.374;4.882;2023-05-07T09:40:37;14.27;;;13.68;;
26038;SDS011;13815;52.374;4.882;2023-05-07T09:43:13;16.85;;;15.95;;
26038;SDS011;13815;52.374;4.882;2023-05-07T09:45:38;18.35;;;17.25;;
26038;SDS011;13815;52.374;4.882;2023-05-07T09:48:04;21.05;;;19.55;;
26038;SDS011;13815;52.374;4.882;2023-05-07T09:50:40;21.02;;;19.52;;
26038;SDS011;13815;52.374;4.882;2023-05-07T09:53:12;21.25;;;19.65;;
26038;SDS011;13815;52.374;4.882;2023-05-07T09:55:38;22.98;;;21.08;;
26038;SDS011;13815;52.374;4.882;2023-05-07T09:58:03;23.30;;;21.20;;
26038;SDS011;13815;52.374;4.882;2023-05-07T10:00:29;23.85;;;21.55;;
26038;SDS011;13815;52.374;4.882;2023-05-07T10:02:56;24.17;;;21.70;;
26038;SDS011;13815;52.374;4.882;2023-05-07T10:05:22;23.85;;;21.45;;
26038;SDS011;13815;52.374;4.882;2023-05-07T10:07:48;24.52;;;21.92;;
26038;SDS011;13815;52.374;4.882;2023-05-07T10:10:14;25.67;;;22.80;;
26038;SDS011;13815;52.374;4.882;2023-05-07T10:12:40;25.33;;;22.25;;
26038;SDS011;13815;52.374;4.882;2023-05-07T10:15:06;25.48;;;21.50;;
26038;SDS011;13815;52.374;4.882;2023-05-07T10:17:36;26.30;;;22.73;;
26038;SDS011;13815;52.374;4.882;2023-05-07T10:20:02;26.45;;;22.35;;
26038;SDS011;13815;52.374;4.882;2023-05-07T10:22:29;24.95;;;21.05;;
26038;SDS011;13815;52.374;4.882;2023-05-07T10:24:58;23.92;;;20.73;;
26038;SDS011;13815;52.374;4.882;2023-05-07T10:27:26;26.10;;;21.38;;
26038;SDS011;13815;52.374;4.882;2023-05-07T10:32:43;25.95;;;21.98;;
26038;SDS011;13815;52.374;4.882;2023-05-07T10:35:16;26.10;;;21.77;;
26038;SDS011;13815;52.374;4.882;2023-05-07T10:40:09;26.52;;;21.35;;
26038;SDS011;13815;52.374;4.882;2023-05-07T10:42:35;26.75;;;21.73;;
26038;SDS011;13815;52.374;4.882;2023-05-07T10:45:13;26.05;;;21.40;;
26038;SDS011;13815;52.374;4.882;2023-05-07T10:50:36;27.67;;;21.40;;
26038;SDS011;13815;52.374;4.882;2023-05-07T10:55:49;27.15;;;21.08;;
26038;SDS011;13815;52.374;4.882;2023-05-07T10:58:25;28.02;;;22.05;;
26038;SDS011;13815;52.374;4.882;2023-05-07T11:00:56;28.55;;;22.00;;
26038;SDS011;13815;52.374;4.882;2023-05-07T11:03:25;31.50;;;22.95;;
26038;SDS011;13815;52.374;4.882;2023-05-07T11:08:54;30.08;;;22.83;;
26038;SDS011;13815;52.374;4.882;2023-05-07T11:14:13;32.42;;;23.63;;
26038;SDS011;13815;52.374;4.882;2023-05-07T11:16:39;31.73;;;23.25;;
26038;SDS011;13815;52.374;4.882;2023-05-07T11:19:05;34.50;;;25.30;;
26038;SDS011;13815;52.374;4.882;2023-05-07T11:24:06;33.20;;;24.75;;
26038;SDS011;13815;52.374;4.882;2023-05-07T11:26:48;32.63;;;24.52;;
26038;SDS011;13815;52.374;4.882;2023-05-07T11:29:18;31.67;;;23.63;;
26038;SDS011;13815;52.374;4.882;2023-05-07T11:31:48;32.03;;;23.42;;
26038;SDS011;13815;52.374;4.882;2023-05-07T11:34:20;31.83;;;23.60;;
26038;SDS011;13815;52.374;4.882;2023-05-07T11:36:52;31.85;;;24.10;;
26038;SDS011;13815;52.374;4.882;2023-05-07T11:41:59;31.17;;;23.45;;
26038;SDS011;13815;52.374;4.882;2023-05-07T11:44:44;31.85;;;24.55;;
26038;SDS011;13815;52.374;4.882;2023-05-07T11:47:11;31.58;;;24.08;;
26038;SDS011;13815;52.374;4.882;2023-05-07T11:49:36;30.85;;;23.73;;
26038;SDS011;13815;52.374;4.882;2023-05-07T11:52:02;29.95;;;23.27;;
26038;SDS011;13815;52.374;4.882;2023-05-07T11:54:34;30.27;;;23.20;;
26038;SDS011;13815;52.374;4.882;2023-05-07T11:57:00;29.70;;;23.23;;
26038;SDS011;13815;52.374;4.882;2023-05-07T11:59:26;29.98;;;23.30;;
26038;SDS011;13815;52.374;4.882;2023-05-07T12:01:51;30.90;;;23.30;;
26038;SDS011;13815;52.374;4.882;2023-05-07T12:04:19;29.08;;;22.80;;
26038;SDS011;13815;52.374;4.882;2023-05-07T12:06:45;29.13;;;22.77;;
26038;SDS011;13815;52.374;4.882;2023-05-07T12:09:11;27.90;;;21.52;;
26038;SDS011;13815;52.374;4.882;2023-05-07T12:11:36;27.27;;;21.05;;
26038;SDS011;13815;52.374;4.882;2023-05-07T12:14:04;28.38;;;21.63;;
26038;SDS011;13815;52.374;4.882;2023-05-07T12:16:30;29.15;;;22.35;;
26038;SDS011;13815;52.374;4.882;2023-05-07T12:18:56;29.20;;;22.27;;
26038;SDS011;13815;52.374;4.882;2023-05-07T12:21:23;29.05;;;22.50;;
26038;SDS011;13815;52.374;4.882;2023-05-07T12:23:50;28.52;;;21.73;;
26038;SDS011;13815;52.374;4.882;2023-05-07T12:26:15;28.45;;;22.30;;
26038;SDS011;13815;52.374;4.882;2023-05-07T12:28:40;27.95;;;21.33;;
26038;SDS011;13815;52.374;4.882;2023-05-07T12:31:06;28.95;;;21.98;;
26038;SDS011;13815;52.374;4.882;2023-05-07T12:33:32;29.70;;;22.45;;
26038;SDS011;13815;52.374;4.882;2023-05-07T12:35:58;28.95;;;21.80;;
26038;SDS011;13815;52.374;4.882;2023-05-07T12:38:24;29.17;;;22.08;;
26038;SDS011;13815;52.374;4.882;2023-05-07T12:40:50;29.63;;;22.35;;
26038;SDS011;13815;52.374;4.882;2023-05-07T12:43:25;28.95;;;22.05;;
26038;SDS011;13815;52.374;4.882;2023-05-07T12:45:52;29.10;;;22.30;;
26038;SDS011;13815;52.374;4.882;2023-05-07T12:48:19;29.30;;;22.38;;
26038;SDS011;13815;52.374;4.882;2023-05-07T12:50:45;28.55;;;21.98;;
26038;SDS011;13815;52.374;4.882;2023-05-07T12:53:14;30.20;;;22.85;;
26038;SDS011;13815;52.374;4.882;2023-05-07T12:55:46;30.05;;;23.27;;
26038;SDS011;13815;52.374;4.882;2023-05-07T12:58:29;29.33;;;23.05;;
26038;SDS011;13815;52.374;4.882;2023-05-07T13:00:56;29.00;;;22.80;;
26038;SDS011;13815;52.374;4.882;2023-05-07T13:03:29;29.15;;;22.98;;
26038;SDS011;13815;52.374;4.882;2023-05-07T13:06:03;29.40;;;22.60;;
26038;SDS011;13815;52.374;4.882;2023-05-07T13:08:38;29.85;;;22.25;;
26038;SDS011;13815;52.374;4.882;2023-05-07T13:11:08;30.38;;;22.55;;
26038;SDS011;13815;52.374;4.882;2023-05-07T13:13:35;30.02;;;21.77;;
26038;SDS011;13815;52.374;4.882;2023-05-07T13:16:02;30.05;;;21.92;;
26038;SDS011;13815;52.374;4.882;2023-05-07T13:18:29;30.02;;;22.05;;
26038;SDS011;13815;52.374;4.882;2023-05-07T13:20:55;28.67;;;22.13;;
26038;SDS011;13815;52.374;4.882;2023-05-07T13:23:20;29.42;;;21.70;;
26038;SDS011;13815;52.374;4.882;2023-05-07T13:25:46;28.67;;;21.40;;
26038;SDS011;13815;52.374;4.882;2023-05-07T13:28:11;28.88;;;21.55;;
26038;SDS011;13815;52.374;4.882;2023-05-07T13:30:43;29.75;;;22.90;;
26038;SDS011;13815;52.374;4.882;2023-05-07T13:33:08;29.95;;;23.05;;
26038;SDS011;13815;52.374;4.882;2023-05-07T13:35:34;29.83;;;22.45;;
26038;SDS011;13815;52.374;4.882;2023-05-07T13:38:00;29.40;;;22.20;;
26038;SDS011;13815;52.374;4.882;2023-05-07T13:40:25;31.08;;;22.70;;
26038;SDS011;13815;52.374;4.882;2023-05-07T13:42:50;30.67;;;22.88;;
26038;SDS011;13815;52.374;4.882;2023-05-07T13:45:17;28.00;;;21.45;;
26038;SDS011;13815;52.374;4.882;2023-05-07T13:47:43;27.00;;;21.33;;
26038;SDS011;13815;52.374;4.882;2023-05-07T13:50:09;26.10;;;21.10;;
26038;SDS011;13815;52.374;4.882;2023-05-07T13:52:36;21.73;;;19.42;;
26038;SDS011;13815;52.374;4.882;2023-05-07T13:55:02;20.60;;;18.60;;
26038;SDS011;13815;52.374;4.882;2023-05-07T13:57:27;17.40;;;16.10;;
26038;SDS011;13815;52.374;4.882;2023-05-07T13:59:52;17.00;;;15.82;;
26038;SDS011;13815;52.374;4.882;2023-05-07T14:02:18;18.60;;;17.20;;
26038;SDS011;13815;52.374;4.882;2023-05-07T14:04:43;16.45;;;15.45;;
26038;SDS011;13815;52.374;4.882;2023-05-07T14:07:10;16.58;;;15.48;;
26038;SDS011;13815;52.374;4.882;2023-05-07T14:09:35;18.58;;;17.08;;
26038;SDS011;13815;52.374;4.882;2023-05-07T14:12:00;14.60;;;13.90;;
26038;SDS011;13815;52.374;4.882;2023-05-07T14:17:26;10.90;;;10.50;;
26038;SDS011;13815;52.374;4.882;2023-05-07T14:19:52;9.80;;;9.50;;
26038;SDS011;13815;52.374;4.882;2023-05-07T14:22:21;7.90;;;7.70;;
26038;SDS011;13815;52.374;4.882;2023-05-07T14:24:48;6.03;;;5.90;;
26038;SDS011;13815;52.374;4.882;2023-05-07T14:27:13;4.10;;;4.00;;
26038;SDS011;13815;52.374;4.882;2023-05-07T14:29:39;3.10;;;3.00;;
26038;SDS011;13815;52.374;4.882;2023-05-07T14:32:04;2.45;;;2.45;;
26038;SDS011;13815;52.374;4.882;2023-05-07T14:34:30;1.77;;;1.77;;
26038;SDS011;13815;52.374;4.882;2023-05-07T14:36:57;1.30;;;1.30;;
26038;SDS011;13815;52.374;4.882;2023-05-07T14:39:24;0.90;;;0.90;;
26038;SDS011;13815;52.374;4.882;2023-05-07T14:41:50;0.90;;;0.90;;
26038;SDS011;13815;52.374;4.882;2023-05-07T14:44:15;0.90;;;0.90;;
26038;SDS011;13815;52.374;4.882;2023-05-07T14:46:41;0.75;;;0.75;;
26038;SDS011;13815;52.374;4.882;2023-05-07T14:49:06;0.60;;;0.60;;
26038;SDS011;13815;52.374;4.882;2023-05-07T14:51:41;0.50;;;0.50;;
26038;SDS011;13815;52.374;4.882;2023-05-07T14:54:06;0.40;;;0.40;;
26038;SDS011;13815;52.374;4.882;2023-05-07T14:56:32;0.40;;;0.40;;
26038;SDS011;13815;52.374;4.882;2023-05-07T14:58:57;0.30;;;0.30;;
26038;SDS011;13815;52.374;4.882;2023-05-07T15:01:23;0.40;;;0.40;;
26038;SDS011;13815;52.374;4.882;2023-05-07T15:03:50;0.50;;;0.50;;